KMPV/MPV METAR and TAF weather

Enter ICAO airport designator
Station Type Date Time Source
KMPV METAR 2024/02/26 16:51 UTC NOAA

KMPV 261651Z AUTO 19006KT 10SM CLR 06/M03 A2988 RMK AO2 SLP130 T00611033


Station Type Date Time Source
KMPV Decoded METAR 2024/02/26 16:51 UTC NOAA

KNAPP STATE AIRPORT, VT, United States (KMPV) 44-12N 072-34W 343M
Feb 26, 2024 - 11:51 AM EST / 2024.02.26 1651 UTC
Wind: from the S (190 degrees) at 7 MPH (6 KT):0
Visibility: 10 mile(s):0
Sky conditions: clear
Temperature: 43.0 F (6.1 C)
Dew Point: 26.1 F (-3.3 C)
Relative Humidity: 50%
Pressure (altimeter): 29.88 in. Hg (1011 hPa)
ob: KMPV 261651Z AUTO 19006KT 10SM CLR 06/M03 A2988 RMK AO2 SLP130 T00611033
cycle: 17

Station Type Date Time Source
KMPV TAF 2024/02/26 12:33 UTC NOAA